createdAt,value
2019-02-17T00:00:37.179Z,20.70
2019-02-17T00:03:10.299Z,19.97
2019-02-17T00:05:43.307Z,18.03
2019-02-17T00:08:16.193Z,17.00
2019-02-17T00:10:49.118Z,17.23
2019-02-17T00:13:22.127Z,18.47
2019-02-17T00:15:55.190Z,17.90
2019-02-17T00:18:28.038Z,16.77
2019-02-17T00:21:00.829Z,18.10
2019-02-17T00:23:33.944Z,17.13
2019-02-17T00:26:06.795Z,16.93
2019-02-17T00:28:39.748Z,17.03
2019-02-17T00:31:12.795Z,17.53
2019-02-17T00:33:45.613Z,18.03
2019-02-17T00:36:18.678Z,17.53
2019-02-17T00:38:51.843Z,16.83
2019-02-17T00:41:24.789Z,16.97
2019-02-17T00:43:57.774Z,18.13
2019-02-17T00:46:30.558Z,18.83
2019-02-17T00:49:03.488Z,18.47
2019-02-17T00:51:36.394Z,18.00
2019-02-17T00:54:09.558Z,18.07
2019-02-17T00:56:42.353Z,18.47
2019-02-17T00:59:15.184Z,18.10
2019-02-17T01:01:48.389Z,18.37
2019-02-17T01:04:21.669Z,18.77
2019-02-17T01:06:54.561Z,18.30
2019-02-17T01:09:28.607Z,18.53
2019-02-17T01:12:01.497Z,19.13
2019-02-17T01:14:34.601Z,18.57
2019-02-17T01:17:07.842Z,17.87
2019-02-17T01:19:40.855Z,18.63
2019-02-17T01:22:14.035Z,19.00
2019-02-17T01:24:47.107Z,17.93
2019-02-17T01:27:19.858Z,18.80
2019-02-17T01:29:52.696Z,18.80
2019-02-17T01:32:25.546Z,18.87
2019-02-17T01:34:58.395Z,18.80
2019-02-17T01:37:31.272Z,18.53
2019-02-17T01:40:05.024Z,18.70
2019-02-17T01:42:38.142Z,18.67
2019-02-17T01:45:11.352Z,18.70
2019-02-17T01:47:44.322Z,18.13
2019-02-17T01:50:17.211Z,19.20
2019-02-17T01:52:50.115Z,18.60
2019-02-17T01:55:23.197Z,18.87
2019-02-17T01:57:56.012Z,19.50
2019-02-17T02:00:28.863Z,20.00
2019-02-17T02:03:01.672Z,19.13
2019-02-17T02:05:34.561Z,18.93
2019-02-17T02:08:07.308Z,18.80
2019-02-17T02:10:40.350Z,19.53
2019-02-17T02:13:13.357Z,18.60
2019-02-17T02:15:46.255Z,18.80
2019-02-17T02:18:19.367Z,18.63
2019-02-17T02:20:52.225Z,18.87
2019-02-17T02:23:25.205Z,19.33
2019-02-17T02:25:58.235Z,19.40
2019-02-17T02:28:31.156Z,20.07
2019-02-17T02:31:03.887Z,18.37
2019-02-17T02:33:36.708Z,19.03
2019-02-17T02:36:09.565Z,18.93
2019-02-17T02:38:42.491Z,18.67
2019-02-17T02:41:15.248Z,18.50
2019-02-17T02:43:48.152Z,19.33
2019-02-17T02:46:21.140Z,20.47
2019-02-17T02:48:54.165Z,19.80
2019-02-17T02:51:27.172Z,19.80
2019-02-17T02:54:00.071Z,19.70
2019-02-17T02:56:33.091Z,19.20
2019-02-17T02:59:05.821Z,20.33
2019-02-17T03:01:38.612Z,19.30
2019-02-17T03:04:11.446Z,20.00
2019-02-17T03:06:50.319Z,20.67
2019-02-17T03:09:23.239Z,19.27
2019-02-17T03:11:56.396Z,19.40
2019-02-17T03:14:29.309Z,19.57
2019-02-17T03:17:02.509Z,20.77
2019-02-17T03:19:35.421Z,20.17
2019-02-17T03:22:08.332Z,19.77
2019-02-17T03:24:41.057Z,19.80
2019-02-17T03:27:14.062Z,20.00
2019-02-17T03:29:47.149Z,20.77
2019-02-17T03:32:20.222Z,19.87
2019-02-17T03:34:53.353Z,20.17
2019-02-17T03:37:26.079Z,20.67
2019-02-17T03:39:58.852Z,20.07
2019-02-17T03:42:31.794Z,21.37
2019-02-17T03:45:05.191Z,20.90
2019-02-17T03:47:38.239Z,20.13
2019-02-17T03:50:11.274Z,21.37
2019-02-17T03:52:44.256Z,21.03
2019-02-17T03:55:17.247Z,19.50
2019-02-17T03:57:51.090Z,19.60
2019-02-17T04:00:23.846Z,20.37
2019-02-17T04:02:56.941Z,20.80
2019-02-17T04:05:30.009Z,20.03
2019-02-17T04:08:02.852Z,22.07
2019-02-17T04:10:35.721Z,19.20
2019-02-17T04:13:08.628Z,21.07
2019-02-17T04:15:41.471Z,20.90
2019-02-17T04:18:14.300Z,21.13
2019-02-17T04:20:47.185Z,21.87
2019-02-17T04:23:30.478Z,21.93
2019-02-17T04:25:55.856Z,23.47
2019-02-17T04:28:28.608Z,22.33
2019-02-17T04:31:01.431Z,22.97
2019-02-17T04:33:34.337Z,22.30
2019-02-17T04:36:07.516Z,23.53
2019-02-17T04:38:40.371Z,20.80
2019-02-17T04:41:13.110Z,24.13
2019-02-17T04:43:45.901Z,26.20
2019-02-17T04:46:18.746Z,23.13
2019-02-17T04:48:51.792Z,21.67
2019-02-17T04:51:25.091Z,22.20
2019-02-17T04:53:58.420Z,21.60
2019-02-17T04:56:31.422Z,21.83
2019-02-17T04:59:04.411Z,22.67
2019-02-17T05:01:37.494Z,24.93
2019-02-17T05:04:10.507Z,24.70
2019-02-17T05:06:43.603Z,24.87
2019-02-17T05:09:16.862Z,25.23
2019-02-17T05:11:49.744Z,25.20
2019-02-17T05:14:22.783Z,24.97
2019-02-17T05:16:55.537Z,25.47
2019-02-17T05:19:28.438Z,25.47
2019-02-17T05:22:01.211Z,25.30
2019-02-17T05:24:34.036Z,27.33
2019-02-17T05:27:06.817Z,28.23
2019-02-17T05:29:39.976Z,27.83
2019-02-17T05:32:12.931Z,25.33
2019-02-17T05:34:45.787Z,24.77
2019-02-17T05:37:18.663Z,24.87
2019-02-17T05:39:51.512Z,25.10
2019-02-17T05:42:24.442Z,27.43
2019-02-17T05:44:57.424Z,27.10
2019-02-17T05:47:30.414Z,27.70
2019-02-17T05:50:03.681Z,25.83
2019-02-17T05:52:36.581Z,24.50
2019-02-17T05:55:09.605Z,25.93
2019-02-17T05:57:42.393Z,25.43
2019-02-17T06:00:17.135Z,25.37
2019-02-17T06:02:50.029Z,26.37
2019-02-17T06:05:23.005Z,25.33
2019-02-17T06:07:55.945Z,25.70
2019-02-17T06:10:29.108Z,26.53
2019-02-17T06:13:02.112Z,23.57
2019-02-17T06:15:35.083Z,23.73
2019-02-17T06:18:08.677Z,23.30
2019-02-17T06:20:41.454Z,23.40
2019-02-17T06:23:14.265Z,25.23
2019-02-17T06:25:47.144Z,25.43
2019-02-17T06:28:20.137Z,24.87
2019-02-17T06:30:53.027Z,25.07
2019-02-17T06:33:25.850Z,24.00
2019-02-17T06:35:59.023Z,25.60
2019-02-17T06:38:31.925Z,23.67
2019-02-17T06:41:04.865Z,23.47
2019-02-17T06:43:37.818Z,25.03
2019-02-17T06:46:13.745Z,24.37
2019-02-17T06:48:47.135Z,23.57
2019-02-17T06:51:19.853Z,25.40
2019-02-17T06:53:53.007Z,24.00
2019-02-17T06:57:00.545Z,22.83
2019-02-17T06:59:33.643Z,22.57
2019-02-17T07:02:06.514Z,24.10
2019-02-17T07:04:57.917Z,22.33
2019-02-17T07:07:31.095Z,22.80
2019-02-17T07:10:04.354Z,21.77
2019-02-17T07:12:37.439Z,21.87
2019-02-17T07:15:10.444Z,21.47
2019-02-17T07:17:43.495Z,21.63
2019-02-17T07:20:16.609Z,21.97
2019-02-17T07:22:49.811Z,22.33
2019-02-17T07:25:29.639Z,20.90
2019-02-17T07:27:57.754Z,21.33
2019-02-17T07:30:31.120Z,21.37
2019-02-17T07:33:04.161Z,20.67
2019-02-17T07:35:37.144Z,22.77
2019-02-17T07:38:10.141Z,21.07
2019-02-17T07:40:43.044Z,21.80
2019-02-17T07:43:15.947Z,20.90
2019-02-17T07:45:48.861Z,24.30
2019-02-17T07:48:21.967Z,22.27
2019-02-17T07:50:56.812Z,27.70
2019-02-17T07:53:29.914Z,22.17
2019-02-17T07:56:02.896Z,21.20
2019-02-17T07:58:35.920Z,22.37
2019-02-17T08:01:08.705Z,22.43
2019-02-17T08:03:41.691Z,20.97
2019-02-17T08:06:14.721Z,22.90
2019-02-17T08:08:47.901Z,21.40
2019-02-17T08:11:20.890Z,20.63
2019-02-17T08:13:54.149Z,19.67
2019-02-17T08:16:27.288Z,19.63
2019-02-17T08:19:00.425Z,20.13
2019-02-17T08:21:33.436Z,19.27
2019-02-17T08:24:06.530Z,18.73
2019-02-17T08:26:39.846Z,20.63
2019-02-17T08:29:13.798Z,19.60
2019-02-17T08:31:55.162Z,18.30
2019-02-17T08:34:21.445Z,21.30
2019-02-17T08:36:54.445Z,19.73
2019-02-17T08:39:27.567Z,17.60
2019-02-17T08:42:00.452Z,19.03
2019-02-17T08:44:33.528Z,18.77
2019-02-17T08:47:06.567Z,19.07
2019-02-17T08:49:40.026Z,18.90
2019-02-17T08:52:12.862Z,18.13
2019-02-17T08:54:46.089Z,19.17
2019-02-17T08:57:19.122Z,18.07
2019-02-17T08:59:51.997Z,18.47
2019-02-17T09:02:24.761Z,17.83
2019-02-17T09:04:57.920Z,18.67
2019-02-17T09:07:30.945Z,18.53
2019-02-17T09:10:04.616Z,18.20
2019-02-17T09:12:37.472Z,17.23
2019-02-17T09:15:10.957Z,17.62
2019-02-17T09:17:43.771Z,17.65
2019-02-17T09:20:16.692Z,18.10
2019-02-17T09:22:49.618Z,18.55
2019-02-17T09:25:22.707Z,23.80
2019-02-17T09:27:55.876Z,17.75
2019-02-17T09:30:28.976Z,16.82
2019-02-17T09:33:02.107Z,16.62
2019-02-17T09:35:35.146Z,18.00
2019-02-17T09:38:08.265Z,17.27
2019-02-17T09:40:41.337Z,17.42
2019-02-17T09:43:14.214Z,17.77
2019-02-17T09:45:47.089Z,17.27
2019-02-17T09:48:20.039Z,34.03
2019-02-17T09:50:52.904Z,16.02
2019-02-17T09:53:25.984Z,17.45
2019-02-17T09:55:59.568Z,16.60
2019-02-17T09:58:32.322Z,15.05
2019-02-17T10:01:05.247Z,16.60
2019-02-17T10:03:38.248Z,13.32
2019-02-17T10:06:11.221Z,16.40
2019-02-17T10:08:44.395Z,15.58
2019-02-17T10:11:17.634Z,17.35
2019-02-17T10:13:50.696Z,17.62
2019-02-17T10:16:23.576Z,17.82
2019-02-17T10:18:56.541Z,16.57
2019-02-17T10:21:29.630Z,16.73
2019-02-17T10:24:02.628Z,16.67
2019-02-17T10:26:35.646Z,16.80
2019-02-17T10:29:08.709Z,17.55
2019-02-17T10:31:41.571Z,17.50
2019-02-17T10:34:14.373Z,17.00
2019-02-17T10:36:47.212Z,17.77
2019-02-17T10:39:20.263Z,17.92
2019-02-17T10:41:53.283Z,25.68
2019-02-17T10:44:26.253Z,15.15
2019-02-17T10:46:59.262Z,15.53
2019-02-17T10:49:32.408Z,16.85
2019-02-17T10:52:05.424Z,16.40
2019-02-17T10:54:38.553Z,15.80
2019-02-17T10:57:11.462Z,15.05
2019-02-17T10:59:44.527Z,15.08
2019-02-17T11:02:17.654Z,15.65
2019-02-17T11:04:51.854Z,15.83
2019-02-17T11:07:24.702Z,15.32
2019-02-17T11:09:57.602Z,14.85
2019-02-17T11:12:30.594Z,15.35
2019-02-17T11:15:06.189Z,14.58
2019-02-17T11:17:39.032Z,15.05
2019-02-17T11:20:11.977Z,15.60
2019-02-17T11:22:44.979Z,14.98
2019-02-17T11:25:18.079Z,14.93
2019-02-17T11:27:51.059Z,14.28
2019-02-17T11:30:24.003Z,14.38
2019-02-17T11:32:58.319Z,13.70
2019-02-17T11:35:31.619Z,14.73
2019-02-17T11:38:05.687Z,15.83
2019-02-17T11:40:39.848Z,14.63
2019-02-17T11:43:12.913Z,13.62
2019-02-17T11:45:45.987Z,14.68
2019-02-17T11:48:19.392Z,13.88
2019-02-17T11:50:52.489Z,15.15
2019-02-17T11:53:25.564Z,14.18
2019-02-17T11:55:58.814Z,14.18
2019-02-17T11:58:31.948Z,14.23
2019-02-17T12:01:05.529Z,13.38
2019-02-17T12:03:38.603Z,14.25
2019-02-17T12:06:11.702Z,13.58
2019-02-17T12:08:47.065Z,12.63
2019-02-17T12:11:19.994Z,13.55
2019-02-17T12:13:53.376Z,12.20
2019-02-17T12:16:36.550Z,13.28
2019-02-17T12:19:01.039Z,12.70
2019-02-17T12:21:59.683Z,13.15
2019-02-17T12:24:48.006Z,13.55
2019-02-17T12:27:53.008Z,12.75
2019-02-17T12:30:26.063Z,12.33
2019-02-17T12:32:59.074Z,12.33
2019-02-17T12:35:32.054Z,12.53
2019-02-17T12:38:04.988Z,12.70
2019-02-17T12:40:38.898Z,12.95
2019-02-17T12:43:11.788Z,13.20
2019-02-17T12:45:44.810Z,13.38
2019-02-17T12:48:17.748Z,12.28
2019-02-17T12:50:50.649Z,12.53
2019-02-17T12:53:23.439Z,12.73
2019-02-17T12:55:56.241Z,13.80
2019-02-17T12:58:30.231Z,12.25
2019-02-17T13:01:04.178Z,15.18
2019-02-17T13:03:37.410Z,13.13
2019-02-17T13:06:10.485Z,12.13
2019-02-17T13:08:43.494Z,11.97
2019-02-17T13:11:16.701Z,11.88
2019-02-17T13:13:49.789Z,13.00
2019-02-17T13:16:22.805Z,12.05
2019-02-17T13:18:55.976Z,11.83
2019-02-17T13:21:29.056Z,11.78
2019-02-17T13:24:01.888Z,13.70
2019-02-17T13:26:34.734Z,13.98
2019-02-17T13:29:07.602Z,11.45
2019-02-17T13:31:40.619Z,12.28
2019-02-17T13:34:13.649Z,13.05
2019-02-17T13:36:47.251Z,11.88
2019-02-17T13:39:20.376Z,10.78
2019-02-17T13:41:53.528Z,10.15
2019-02-17T13:44:26.576Z,13.32
2019-02-17T13:46:59.485Z,11.35
2019-02-17T13:49:32.435Z,11.95
2019-02-17T13:52:05.391Z,23.67
2019-02-17T13:54:38.371Z,11.78
2019-02-17T13:57:11.406Z,12.53
2019-02-17T13:59:44.346Z,11.68
2019-02-17T14:02:17.284Z,11.12
2019-02-17T14:04:50.217Z,13.15
2019-02-17T14:07:23.110Z,11.38
2019-02-17T14:09:56.034Z,10.68
2019-02-17T14:12:29.036Z,11.10
2019-02-17T14:15:02.203Z,11.00
2019-02-17T14:17:35.186Z,10.85
2019-02-17T14:20:09.991Z,11.05
2019-02-17T14:22:43.961Z,11.55
2019-02-17T14:25:17.005Z,12.05
2019-02-17T14:27:49.875Z,11.00
2019-02-17T14:30:23.407Z,9.70
2019-02-17T14:32:56.241Z,9.48
2019-02-17T14:35:29.134Z,9.68
2019-02-17T14:38:02.036Z,9.25
2019-02-17T14:40:35.001Z,9.38
2019-02-17T14:43:07.899Z,9.80
2019-02-17T14:45:40.780Z,9.80
2019-02-17T14:48:13.694Z,8.83
2019-02-17T14:50:46.751Z,9.05
2019-02-17T14:53:19.831Z,8.98
2019-02-17T14:55:52.886Z,9.25
2019-02-17T14:58:26.074Z,8.90
2019-02-17T15:00:59.090Z,8.85
2019-02-17T15:03:32.010Z,8.53
2019-02-17T15:06:05.115Z,9.78
2019-02-17T15:08:38.180Z,27.07
2019-02-17T15:11:11.047Z,8.80
2019-02-17T15:13:44.103Z,9.80
2019-02-17T15:16:17.105Z,9.78
2019-02-17T15:18:50.178Z,9.85
2019-02-17T15:21:23.271Z,9.30
2019-02-17T15:23:56.232Z,8.83
2019-02-17T15:26:29.315Z,8.70
2019-02-17T15:29:02.384Z,9.18
2019-02-17T15:31:36.417Z,9.10
2019-02-17T15:34:18.076Z,8.75
2019-02-17T15:36:45.892Z,8.88
2019-02-17T15:39:18.911Z,9.78
2019-02-17T15:41:52.087Z,10.15
2019-02-17T15:44:25.165Z,10.18
2019-02-17T15:46:58.230Z,10.18
2019-02-17T15:49:32.234Z,10.38
2019-02-17T15:52:05.196Z,9.70
2019-02-17T15:54:38.376Z,9.25
2019-02-17T15:57:11.168Z,8.95
2019-02-17T15:59:45.046Z,9.00
2019-02-17T16:02:18.060Z,9.05
2019-02-17T16:04:51.203Z,8.28
2019-02-17T16:07:24.165Z,9.25
2019-02-17T16:09:57.129Z,9.30
2019-02-17T16:12:30.141Z,8.70
2019-02-17T16:15:03.204Z,8.45
2019-02-17T16:17:36.048Z,9.03
2019-02-17T16:20:10.760Z,8.85
2019-02-17T16:22:43.929Z,8.75
2019-02-17T16:25:17.016Z,9.10
2019-02-17T16:27:50.314Z,8.93
2019-02-17T16:30:23.337Z,9.23
2019-02-17T16:32:56.463Z,8.93
2019-02-17T16:35:29.559Z,9.63
2019-02-17T16:38:02.738Z,8.75
2019-02-17T16:40:35.554Z,9.55
2019-02-17T16:43:08.508Z,8.73
2019-02-17T16:45:41.704Z,9.03
2019-02-17T16:48:14.790Z,8.88
2019-02-17T16:50:47.994Z,8.58
2019-02-17T16:53:20.962Z,9.08
2019-02-17T16:55:53.742Z,9.35
2019-02-17T16:58:27.645Z,9.90
2019-02-17T17:01:00.793Z,9.25
2019-02-17T17:03:33.947Z,8.20
2019-02-17T17:06:06.946Z,8.83
2019-02-17T17:08:39.864Z,9.10
2019-02-17T17:11:12.968Z,8.05
2019-02-17T17:13:45.740Z,8.48
2019-02-17T17:16:18.698Z,7.80
2019-02-17T17:18:51.646Z,8.58
2019-02-17T17:21:24.740Z,9.13
2019-02-17T17:23:57.880Z,8.60
2019-02-17T17:26:31.020Z,8.75
2019-02-17T17:29:04.159Z,8.88
2019-02-17T17:31:37.255Z,9.23
2019-02-17T17:34:10.400Z,8.30
2019-02-17T17:36:43.844Z,9.33
2019-02-17T17:39:16.739Z,8.73
2019-02-17T17:41:49.855Z,8.55
2019-02-17T17:44:22.778Z,9.08
2019-02-17T17:46:55.935Z,8.68
2019-02-17T17:49:29.088Z,8.50
2019-02-17T17:52:02.251Z,8.58
2019-02-17T17:54:35.314Z,9.05
2019-02-17T17:57:08.233Z,8.85
2019-02-17T17:59:41.219Z,8.63
2019-02-17T18:02:14.168Z,8.98
2019-02-17T18:04:47.170Z,8.55
2019-02-17T18:07:20.363Z,9.35
2019-02-17T18:09:53.398Z,8.55
2019-02-17T18:12:26.433Z,8.70
2019-02-17T18:14:59.746Z,8.75
2019-02-17T18:17:32.880Z,8.95
2019-02-17T18:20:06.813Z,9.75
2019-02-17T18:22:39.980Z,8.33
2019-02-17T18:25:12.960Z,8.80
2019-02-17T18:27:45.989Z,8.90
2019-02-17T18:30:18.824Z,8.73
2019-02-17T18:32:52.030Z,7.78
2019-02-17T18:35:25.083Z,8.78
2019-02-17T18:37:57.968Z,8.13
2019-02-17T18:40:31.167Z,8.58
2019-02-17T18:43:04.306Z,8.65
2019-02-17T18:45:37.146Z,8.40
2019-02-17T18:48:10.181Z,7.93
2019-02-17T18:50:43.029Z,8.60
2019-02-17T18:53:15.874Z,8.40
2019-02-17T18:55:48.909Z,8.23
2019-02-17T18:58:21.831Z,8.23
2019-02-17T19:00:54.655Z,8.50
2019-02-17T19:03:27.795Z,8.43
2019-02-17T19:06:00.910Z,8.83
2019-02-17T19:08:33.978Z,8.23
2019-02-17T19:11:06.864Z,8.18
2019-02-17T19:13:40.155Z,7.72
2019-02-17T19:16:13.201Z,8.43
2019-02-17T19:18:46.205Z,8.63
2019-02-17T19:21:19.095Z,8.38
2019-02-17T19:23:52.001Z,8.20
2019-02-17T19:26:24.815Z,8.20
2019-02-17T19:28:57.876Z,8.93
2019-02-17T19:31:30.789Z,7.60
2019-02-17T19:34:04.040Z,7.67
2019-02-17T19:36:37.109Z,7.83
2019-02-17T19:39:10.335Z,7.63
2019-02-17T19:41:43.996Z,8.00
2019-02-17T19:44:16.921Z,7.67
2019-02-17T19:46:49.926Z,8.30
2019-02-17T19:49:22.966Z,7.47
2019-02-17T19:51:55.922Z,9.30
2019-02-17T19:54:28.966Z,10.47
2019-02-17T19:57:01.829Z,13.50
2019-02-17T19:59:34.746Z,15.73
2019-02-17T20:02:07.644Z,12.47
2019-02-17T20:04:46.357Z,14.33
2019-02-17T20:07:19.385Z,9.97
2019-02-17T20:09:52.615Z,8.77
2019-02-17T20:12:25.797Z,8.93
2019-02-17T20:14:58.841Z,9.17
2019-02-17T20:17:31.989Z,9.43
2019-02-17T20:20:05.174Z,9.30
2019-02-17T20:22:39.373Z,9.87
2019-02-17T20:25:12.526Z,10.00
2019-02-17T20:27:45.482Z,9.50
2019-02-17T20:30:18.460Z,9.20
2019-02-17T20:32:51.382Z,8.87
2019-02-17T20:35:24.510Z,9.07
2019-02-17T20:37:57.526Z,9.07
2019-02-17T20:40:30.261Z,9.00
2019-02-17T20:43:03.399Z,11.20
2019-02-17T20:45:36.917Z,16.00
2019-02-17T20:48:10.092Z,26.50
2019-02-17T20:50:43.199Z,17.53
2019-02-17T20:53:16.706Z,13.53
2019-02-17T20:55:49.651Z,14.23
2019-02-17T20:58:22.575Z,11.60
2019-02-17T21:00:55.626Z,14.47
2019-02-17T21:03:28.812Z,10.00
2019-02-17T21:06:12.200Z,9.57
2019-02-17T21:08:36.646Z,9.43
2019-02-17T21:11:09.728Z,9.33
2019-02-17T21:13:42.659Z,9.60
2019-02-17T21:16:15.649Z,8.90
2019-02-17T21:18:48.648Z,9.53
2019-02-17T21:21:21.651Z,8.97
2019-02-17T21:23:55.093Z,10.40
2019-02-17T21:26:28.087Z,8.63
2019-02-17T21:29:01.293Z,8.63
2019-02-17T21:31:34.257Z,8.67
2019-02-17T21:34:07.132Z,9.50
2019-02-17T21:36:40.283Z,9.47
2019-02-17T21:39:13.764Z,9.90
2019-02-17T21:41:46.813Z,10.40
2019-02-17T21:44:19.723Z,9.73
2019-02-17T21:46:52.957Z,9.40
2019-02-17T21:49:25.878Z,9.63
2019-02-17T21:51:58.881Z,9.53
2019-02-17T21:54:31.723Z,9.17
2019-02-17T21:57:04.722Z,9.40
2019-02-17T21:59:37.787Z,9.67
2019-02-17T22:02:11.039Z,10.37
2019-02-17T22:04:44.384Z,10.80
2019-02-17T22:07:17.862Z,10.60
2019-02-17T22:09:51.292Z,10.17
2019-02-17T22:12:24.383Z,11.40
2019-02-17T22:14:57.338Z,9.83
2019-02-17T22:17:30.257Z,12.40
2019-02-17T22:20:03.433Z,10.63
2019-02-17T22:22:37.768Z,10.40
2019-02-17T22:25:10.746Z,10.43
2019-02-17T22:27:44.048Z,10.23
2019-02-17T22:30:16.923Z,10.67
2019-02-17T22:32:49.927Z,10.97
2019-02-17T22:35:22.799Z,10.10
2019-02-17T22:37:55.803Z,9.97
2019-02-17T22:40:29.077Z,11.37
2019-02-17T22:43:02.107Z,10.63
2019-02-17T22:45:35.342Z,10.17
2019-02-17T22:48:08.540Z,10.87
2019-02-17T22:50:41.697Z,11.03
2019-02-17T22:53:14.593Z,10.63
2019-02-17T22:55:47.698Z,11.03
2019-02-17T22:58:20.781Z,10.37
2019-02-17T23:01:02.417Z,11.43
2019-02-17T23:03:37.072Z,11.10
2019-02-17T23:06:10.112Z,10.77
2019-02-17T23:08:43.088Z,11.10
2019-02-17T23:11:16.082Z,10.17
2019-02-17T23:13:49.323Z,10.17
2019-02-17T23:16:22.674Z,10.37
2019-02-17T23:18:55.812Z,10.37
2019-02-17T23:21:28.819Z,10.03
2019-02-17T23:24:01.734Z,9.90
2019-02-17T23:26:34.567Z,10.50
2019-02-17T23:29:13.100Z,10.90
2019-02-17T23:31:46.017Z,9.67
2019-02-17T23:34:20.274Z,10.20
2019-02-17T23:36:53.282Z,13.03
2019-02-17T23:39:26.574Z,10.30
2019-02-17T23:41:59.579Z,11.33
2019-02-17T23:44:32.499Z,11.87
2019-02-17T23:47:05.518Z,10.53
2019-02-17T23:49:38.459Z,10.93
2019-02-17T23:52:11.539Z,10.97
2019-02-17T23:54:44.904Z,11.33
2019-02-17T23:57:18.128Z,10.73
